sensor_id;sensor_type;location;lat;lon;timestamp;temperature;humidity
6407;DHT22;3236;51.022;6.818;2023-07-13T00:02:25;16.60;99.90
6407;DHT22;3236;51.022;6.818;2023-07-13T00:04:54;16.50;99.90
6407;DHT22;3236;51.022;6.818;2023-07-13T00:07:21;16.60;99.90
6407;DHT22;3236;51.022;6.818;2023-07-13T00:09:49;16.90;99.90
6407;DHT22;3236;51.022;6.818;2023-07-13T00:12:24;16.60;99.90
6407;DHT22;3236;51.022;6.818;2023-07-13T00:14:52;16.80;99.90
6407;DHT22;3236;51.022;6.818;2023-07-13T00:17:19;16.60;99.90
6407;DHT22;3236;51.022;6.818;2023-07-13T00:19:46;16.90;99.90
6407;DHT22;3236;51.022;6.818;2023-07-13T00:22:15;16.60;99.90
6407;DHT22;3236;51.022;6.818;2023-07-13T00:24:44;16.50;99.90
6407;DHT22;3236;51.022;6.818;2023-07-13T00:27:14;16.50;99.90
6407;DHT22;3236;51.022;6.818;2023-07-13T00:29:41;16.40;99.90
6407;DHT22;3236;51.022;6.818;2023-07-13T00:32:08;16.80;99.90
6407;DHT22;3236;51.022;6.818;2023-07-13T00:37:04;15.70;99.90
6407;DHT22;3236;51.022;6.818;2023-07-13T00:39:35;16.40;99.90
6407;DHT22;3236;51.022;6.818;2023-07-13T00:42:03;16.10;99.90
6407;DHT22;3236;51.022;6.818;2023-07-13T00:44:31;18.00;99.90
6407;DHT22;3236;51.022;6.818;2023-07-13T00:46:58;16.40;99.90
6407;DHT22;3236;51.022;6.818;2023-07-13T00:49:27;16.20;99.90
6407;DHT22;3236;51.022;6.818;2023-07-13T00:51:59;16.50;99.90
6407;DHT22;3236;51.022;6.818;2023-07-13T00:54:32;16.40;99.90
6407;DHT22;3236;51.022;6.818;2023-07-13T00:57:04;16.20;99.90
6407;DHT22;3236;51.022;6.818;2023-07-13T00:59:33;16.40;99.90
6407;DHT22;3236;51.022;6.818;2023-07-13T01:02:04;16.40;99.90
6407;DHT22;3236;51.022;6.818;2023-07-13T01:04:34;16.30;99.90
6407;DHT22;3236;51.022;6.818;2023-07-13T01:07:01;16.20;99.90
6407;DHT22;3236;51.022;6.818;2023-07-13T01:09:31;16.10;99.90
6407;DHT22;3236;51.022;6.818;2023-07-13T01:11:58;15.80;99.90
6407;DHT22;3236;51.022;6.818;2023-07-13T01:14:27;16.10;99.90
6407;DHT22;3236;51.022;6.818;2023-07-13T01:17:03;16.00;99.90
6407;DHT22;3236;51.022;6.818;2023-07-13T01:19:36;16.00;99.90
6407;DHT22;3236;51.022;6.818;2023-07-13T01:22:07;15.60;99.90
6407;DHT22;3236;51.022;6.818;2023-07-13T01:24:37;15.80;99.90
6407;DHT22;3236;51.022;6.818;2023-07-13T01:27:07;15.70;99.90
6407;DHT22;3236;51.022;6.818;2023-07-13T01:29:36;15.50;99.90
6407;DHT22;3236;51.022;6.818;2023-07-13T01:32:08;15.40;99.90
6407;DHT22;3236;51.022;6.818;2023-07-13T01:34:36;15.50;99.90
6407;DHT22;3236;51.022;6.818;2023-07-13T01:37:05;15.50;99.90
6407;DHT22;3236;51.022;6.818;2023-07-13T01:39:33;15.40;99.90
6407;DHT22;3236;51.022;6.818;2023-07-13T01:42:00;15.50;99.90
6407;DHT22;3236;51.022;6.818;2023-07-13T01:44:27;15.60;99.90
6407;DHT22;3236;51.022;6.818;2023-07-13T01:46:54;15.60;99.90
6407;DHT22;3236;51.022;6.818;2023-07-13T01:49:21;16.10;99.90
6407;DHT22;3236;51.022;6.818;2023-07-13T01:51:48;16.20;99.90
6407;DHT22;3236;51.022;6.818;2023-07-13T01:54:17;15.70;99.90
6407;DHT22;3236;51.022;6.818;2023-07-13T01:56:44;16.00;99.90
6407;DHT22;3236;51.022;6.818;2023-07-13T01:59:11;15.50;99.90
6407;DHT22;3236;51.022;6.818;2023-07-13T02:01:38;15.70;99.90
6407;DHT22;3236;51.022;6.818;2023-07-13T02:04:05;15.70;99.90
6407;DHT22;3236;51.022;6.818;2023-07-13T02:06:35;15.60;99.90
6407;DHT22;3236;51.022;6.818;2023-07-13T02:09:02;15.50;99.90
6407;DHT22;3236;51.022;6.818;2023-07-13T02:11:36;15.50;99.90
6407;DHT22;3236;51.022;6.818;2023-07-13T02:14:05;15.40;99.90
6407;DHT22;3236;51.022;6.818;2023-07-13T02:16:35;15.60;99.90
6407;DHT22;3236;51.022;6.818;2023-07-13T02:19:02;15.90;99.90
6407;DHT22;3236;51.022;6.818;2023-07-13T02:21:30;15.50;99.90
6407;DHT22;3236;51.022;6.818;2023-07-13T02:23:57;15.50;99.90
6407;DHT22;3236;51.022;6.818;2023-07-13T02:26:24;15.90;99.90
6407;DHT22;3236;51.022;6.818;2023-07-13T02:28:52;15.40;99.90
6407;DHT22;3236;51.022;6.818;2023-07-13T02:31:20;15.50;99.90
6407;DHT22;3236;51.022;6.818;2023-07-13T02:33:47;15.80;99.90
6407;DHT22;3236;51.022;6.818;2023-07-13T02:36:15;15.20;99.90
6407;DHT22;3236;51.022;6.818;2023-07-13T02:38:44;15.50;99.90
6407;DHT22;3236;51.022;6.818;2023-07-13T02:41:11;15.40;99.90
6407;DHT22;3236;51.022;6.818;2023-07-13T02:43:39;15.10;99.90
6407;DHT22;3236;51.022;6.818;2023-07-13T02:46:08;15.50;99.90
6407;DHT22;3236;51.022;6.818;2023-07-13T02:48:35;15.20;99.90
6407;DHT22;3236;51.022;6.818;2023-07-13T02:51:03;15.40;99.90
6407;DHT22;3236;51.022;6.818;2023-07-13T02:53:30;15.30;99.90
6407;DHT22;3236;51.022;6.818;2023-07-13T02:55:57;15.40;99.90
6407;DHT22;3236;51.022;6.818;2023-07-13T02:58:30;15.30;99.90
6407;DHT22;3236;51.022;6.818;2023-07-13T03:00:57;15.10;99.90
6407;DHT22;3236;51.022;6.818;2023-07-13T03:03:26;15.30;99.90
6407;DHT22;3236;51.022;6.818;2023-07-13T03:05:59;15.30;99.90
6407;DHT22;3236;51.022;6.818;2023-07-13T03:10:59;16.90;99.90
6407;DHT22;3236;51.022;6.818;2023-07-13T03:13:26;15.30;99.90
6407;DHT22;3236;51.022;6.818;2023-07-13T03:15:53;15.30;99.90
6407;DHT22;3236;51.022;6.818;2023-07-13T03:18:21;15.50;99.90
6407;DHT22;3236;51.022;6.818;2023-07-13T03:20:51;15.20;99.90
6407;DHT22;3236;51.022;6.818;2023-07-13T03:23:20;15.00;99.90
6407;DHT22;3236;51.022;6.818;2023-07-13T03:25:47;15.00;99.90
6407;DHT22;3236;51.022;6.818;2023-07-13T03:28:15;15.10;99.90
6407;DHT22;3236;51.022;6.818;2023-07-13T03:30:45;15.00;99.90
6407;DHT22;3236;51.022;6.818;2023-07-13T03:33:12;15.30;99.90
6407;DHT22;3236;51.022;6.818;2023-07-13T03:35:40;14.90;99.90
6407;DHT22;3236;51.022;6.818;2023-07-13T03:38:09;14.60;99.90
6407;DHT22;3236;51.022;6.818;2023-07-13T03:45:38;14.60;99.90
6407;DHT22;3236;51.022;6.818;2023-07-13T03:48:05;15.20;99.90
6407;DHT22;3236;51.022;6.818;2023-07-13T03:53:00;14.90;99.90
6407;DHT22;3236;51.022;6.818;2023-07-13T03:55:28;14.70;99.90
6407;DHT22;3236;51.022;6.818;2023-07-13T03:57:59;15.40;99.90
6407;DHT22;3236;51.022;6.818;2023-07-13T04:00:27;15.00;99.90
6407;DHT22;3236;51.022;6.818;2023-07-13T04:02:54;15.40;99.90
6407;DHT22;3236;51.022;6.818;2023-07-13T04:05:21;15.20;99.90
6407;DHT22;3236;51.022;6.818;2023-07-13T04:10:15;14.80;99.90
6407;DHT22;3236;51.022;6.818;2023-07-13T04:12:44;15.10;99.90
6407;DHT22;3236;51.022;6.818;2023-07-13T04:15:30;15.20;99.90
6407;DHT22;3236;51.022;6.818;2023-07-13T04:18:00;15.10;99.90
6407;DHT22;3236;51.022;6.818;2023-07-13T04:20:28;14.80;99.90
6407;DHT22;3236;51.022;6.818;2023-07-13T04:25:26;15.00;99.90
6407;DHT22;3236;51.022;6.818;2023-07-13T04:27:54;14.90;99.90
6407;DHT22;3236;51.022;6.818;2023-07-13T04:30:21;14.90;99.90
6407;DHT22;3236;51.022;6.818;2023-07-13T04:32:52;14.80;99.90
6407;DHT22;3236;51.022;6.818;2023-07-13T04:35:21;14.80;99.90
6407;DHT22;3236;51.022;6.818;2023-07-13T04:37:49;14.70;99.90
6407;DHT22;3236;51.022;6.818;2023-07-13T04:40:17;15.30;99.90
6407;DHT22;3236;51.022;6.818;2023-07-13T04:42:44;15.00;99.90
6407;DHT22;3236;51.022;6.818;2023-07-13T04:45:13;15.00;99.90
6407;DHT22;3236;51.022;6.818;2023-07-13T04:47:41;15.10;99.90
6407;DHT22;3236;51.022;6.818;2023-07-13T04:50:13;15.20;99.90
6407;DHT22;3236;51.022;6.818;2023-07-13T04:57:37;15.20;99.90
6407;DHT22;3236;51.022;6.818;2023-07-13T05:00:05;15.20;99.90
6407;DHT22;3236;51.022;6.818;2023-07-13T05:02:44;15.50;99.90
6407;DHT22;3236;51.022;6.818;2023-07-13T05:05:11;16.00;99.90
6407;DHT22;3236;51.022;6.818;2023-07-13T05:07:38;16.20;99.90
6407;DHT22;3236;51.022;6.818;2023-07-13T05:10:06;16.30;99.90
6407;DHT22;3236;51.022;6.818;2023-07-13T05:15:01;16.20;99.90
6407;DHT22;3236;51.022;6.818;2023-07-13T05:17:29;16.50;99.90
6407;DHT22;3236;51.022;6.818;2023-07-13T05:20:00;16.00;99.90
6407;DHT22;3236;51.022;6.818;2023-07-13T05:22:27;16.40;99.90
6407;DHT22;3236;51.022;6.818;2023-07-13T05:27:22;16.40;99.90
6407;DHT22;3236;51.022;6.818;2023-07-13T05:29:49;16.80;99.90
6407;DHT22;3236;51.022;6.818;2023-07-13T05:32:17;17.10;99.90
6407;DHT22;3236;51.022;6.818;2023-07-13T05:34:44;16.40;99.90
6407;DHT22;3236;51.022;6.818;2023-07-13T05:37:19;16.80;99.90
6407;DHT22;3236;51.022;6.818;2023-07-13T05:39:46;17.30;99.90
6407;DHT22;3236;51.022;6.818;2023-07-13T05:42:13;16.70;99.90
6407;DHT22;3236;51.022;6.818;2023-07-13T05:44:40;16.80;99.90
6407;DHT22;3236;51.022;6.818;2023-07-13T05:52:02;17.60;99.90
6407;DHT22;3236;51.022;6.818;2023-07-13T05:54:30;16.90;99.90
6407;DHT22;3236;51.022;6.818;2023-07-13T05:56:57;17.50;99.90
6407;DHT22;3236;51.022;6.818;2023-07-13T05:59:25;17.40;99.90
6407;DHT22;3236;51.022;6.818;2023-07-13T06:04:22;17.70;99.90
6407;DHT22;3236;51.022;6.818;2023-07-13T06:06:49;16.80;99.90
6407;DHT22;3236;51.022;6.818;2023-07-13T06:09:16;17.00;99.90
6407;DHT22;3236;51.022;6.818;2023-07-13T06:11:45;17.10;99.90
6407;DHT22;3236;51.022;6.818;2023-07-13T06:16:40;17.20;99.90
6407;DHT22;3236;51.022;6.818;2023-07-13T06:19:07;17.40;99.90
6407;DHT22;3236;51.022;6.818;2023-07-13T06:21:34;17.10;99.90
6407;DHT22;3236;51.022;6.818;2023-07-13T06:24:01;18.00;99.90
6407;DHT22;3236;51.022;6.818;2023-07-13T06:26:34;16.90;99.90
6407;DHT22;3236;51.022;6.818;2023-07-13T06:31:31;17.80;99.90
6407;DHT22;3236;51.022;6.818;2023-07-13T06:33:58;17.20;99.90
6407;DHT22;3236;51.022;6.818;2023-07-13T06:36:28;17.90;99.90
6407;DHT22;3236;51.022;6.818;2023-07-13T06:38:55;17.40;99.90
6407;DHT22;3236;51.022;6.818;2023-07-13T06:41:22;18.10;99.90
6407;DHT22;3236;51.022;6.818;2023-07-13T06:43:51;18.10;99.90
6407;DHT22;3236;51.022;6.818;2023-07-13T06:46:28;18.50;99.90
6407;DHT22;3236;51.022;6.818;2023-07-13T06:48:55;18.70;99.90
6407;DHT22;3236;51.022;6.818;2023-07-13T06:51:23;18.60;99.90
6407;DHT22;3236;51.022;6.818;2023-07-13T06:56:20;18.20;99.90
6407;DHT22;3236;51.022;6.818;2023-07-13T06:58:47;19.20;99.90
6407;DHT22;3236;51.022;6.818;2023-07-13T07:03:42;18.60;99.90
6407;DHT22;3236;51.022;6.818;2023-07-13T07:06:14;19.10;99.90
6407;DHT22;3236;51.022;6.818;2023-07-13T07:08:43;18.90;99.90
6407;DHT22;3236;51.022;6.818;2023-07-13T07:11:12;19.30;99.90
6407;DHT22;3236;51.022;6.818;2023-07-13T07:13:40;18.80;99.90
6407;DHT22;3236;51.022;6.818;2023-07-13T07:18:34;18.80;99.90
6407;DHT22;3236;51.022;6.818;2023-07-13T07:21:05;18.50;99.90
6407;DHT22;3236;51.022;6.818;2023-07-13T07:23:35;19.10;99.90
6407;DHT22;3236;51.022;6.818;2023-07-13T07:26:02;18.90;99.90
6407;DHT22;3236;51.022;6.818;2023-07-13T07:31:00;18.90;99.90
6407;DHT22;3236;51.022;6.818;2023-07-13T07:33:33;18.80;99.90
6407;DHT22;3236;51.022;6.818;2023-07-13T07:36:12;19.00;99.90
6407;DHT22;3236;51.022;6.818;2023-07-13T07:41:09;19.00;99.90
6407;DHT22;3236;51.022;6.818;2023-07-13T07:43:36;19.50;99.90
6407;DHT22;3236;51.022;6.818;2023-07-13T07:46:07;18.90;99.90
6407;DHT22;3236;51.022;6.818;2023-07-13T07:48:34;19.30;99.90
6407;DHT22;3236;51.022;6.818;2023-07-13T07:51:02;19.20;99.90
6407;DHT22;3236;51.022;6.818;2023-07-13T07:53:33;19.00;99.90
6407;DHT22;3236;51.022;6.818;2023-07-13T07:56:00;18.90;99.90
6407;DHT22;3236;51.022;6.818;2023-07-13T07:58:28;19.20;99.90
6407;DHT22;3236;51.022;6.818;2023-07-13T08:01:03;19.10;99.90
6407;DHT22;3236;51.022;6.818;2023-07-13T08:03:30;19.30;99.90
6407;DHT22;3236;51.022;6.818;2023-07-13T08:05:57;19.70;99.90
6407;DHT22;3236;51.022;6.818;2023-07-13T08:08:25;19.30;99.90
6407;DHT22;3236;51.022;6.818;2023-07-13T08:10:53;19.50;99.90
6407;DHT22;3236;51.022;6.818;2023-07-13T08:13:20;19.30;99.90
6407;DHT22;3236;51.022;6.818;2023-07-13T08:15:47;19.40;99.90
6407;DHT22;3236;51.022;6.818;2023-07-13T08:18:21;19.50;99.90
6407;DHT22;3236;51.022;6.818;2023-07-13T08:23:15;19.80;99.90
6407;DHT22;3236;51.022;6.818;2023-07-13T08:28:16;19.90;99.90
6407;DHT22;3236;51.022;6.818;2023-07-13T08:30:43;19.50;99.90
6407;DHT22;3236;51.022;6.818;2023-07-13T08:33:14;19.90;99.90
6407;DHT22;3236;51.022;6.818;2023-07-13T08:35:41;19.80;99.90
6407;DHT22;3236;51.022;6.818;2023-07-13T08:40:39;19.90;99.90
6407;DHT22;3236;51.022;6.818;2023-07-13T08:43:12;20.40;99.90
6407;DHT22;3236;51.022;6.818;2023-07-13T08:45:44;20.00;99.90
6407;DHT22;3236;51.022;6.818;2023-07-13T08:48:23;20.60;99.90
6407;DHT22;3236;51.022;6.818;2023-07-13T08:50:54;20.40;99.90
6407;DHT22;3236;51.022;6.818;2023-07-13T08:53:23;20.30;99.90
6407;DHT22;3236;51.022;6.818;2023-07-13T08:55:54;20.40;99.90
6407;DHT22;3236;51.022;6.818;2023-07-13T08:58:25;20.60;99.90
6407;DHT22;3236;51.022;6.818;2023-07-13T09:01:01;20.80;99.90
6407;DHT22;3236;51.022;6.818;2023-07-13T09:03:37;19.90;99.90
6407;DHT22;3236;51.022;6.818;2023-07-13T09:06:08;20.10;99.90
6407;DHT22;3236;51.022;6.818;2023-07-13T09:08:52;20.30;99.90
6407;DHT22;3236;51.022;6.818;2023-07-13T09:11:42;20.50;99.90
6407;DHT22;3236;51.022;6.818;2023-07-13T09:17:12;20.90;99.90
6407;DHT22;3236;51.022;6.818;2023-07-13T09:19:41;20.70;99.90
6407;DHT22;3236;51.022;6.818;2023-07-13T09:22:14;21.20;99.90
6407;DHT22;3236;51.022;6.818;2023-07-13T09:24:52;20.80;99.90
6407;DHT22;3236;51.022;6.818;2023-07-13T09:27:21;20.70;99.90
6407;DHT22;3236;51.022;6.818;2023-07-13T09:29:54;21.50;99.90
6407;DHT22;3236;51.022;6.818;2023-07-13T09:32:26;21.20;99.90
6407;DHT22;3236;51.022;6.818;2023-07-13T09:34:56;21.20;99.90
6407;DHT22;3236;51.022;6.818;2023-07-13T09:37:30;21.20;99.90
6407;DHT22;3236;51.022;6.818;2023-07-13T09:40:00;22.00;99.90
6407;DHT22;3236;51.022;6.818;2023-07-13T09:42:31;21.10;99.90
6407;DHT22;3236;51.022;6.818;2023-07-13T09:45:03;21.20;99.90
6407;DHT22;3236;51.022;6.818;2023-07-13T09:47:38;21.70;99.90
6407;DHT22;3236;51.022;6.818;2023-07-13T09:50:15;21.60;99.90
6407;DHT22;3236;51.022;6.818;2023-07-13T09:52:45;21.40;99.90
6407;DHT22;3236;51.022;6.818;2023-07-13T09:55:29;21.60;99.90
6407;DHT22;3236;51.022;6.818;2023-07-13T09:57:56;21.50;99.90
6407;DHT22;3236;51.022;6.818;2023-07-13T10:00:28;21.60;99.90
6407;DHT22;3236;51.022;6.818;2023-07-13T10:03:05;21.70;99.90
6407;DHT22;3236;51.022;6.818;2023-07-13T10:05:42;21.30;99.90
6407;DHT22;3236;51.022;6.818;2023-07-13T10:08:17;21.80;99.90
6407;DHT22;3236;51.022;6.818;2023-07-13T10:10:46;21.50;99.90
6407;DHT22;3236;51.022;6.818;2023-07-13T10:15:57;21.80;99.90
6407;DHT22;3236;51.022;6.818;2023-07-13T10:18:26;22.30;99.90
6407;DHT22;3236;51.022;6.818;2023-07-13T10:21:08;22.20;99.00
6407;DHT22;3236;51.022;6.818;2023-07-13T10:23:36;22.20;97.80
6407;DHT22;3236;51.022;6.818;2023-07-13T10:26:19;23.10;97.70
6407;DHT22;3236;51.022;6.818;2023-07-13T10:28:52;22.30;98.70
6407;DHT22;3236;51.022;6.818;2023-07-13T10:31:21;23.20;98.90
6407;DHT22;3236;51.022;6.818;2023-07-13T10:33:50;22.30;96.10
6407;DHT22;3236;51.022;6.818;2023-07-13T10:36:27;23.60;95.60
6407;DHT22;3236;51.022;6.818;2023-07-13T10:38:57;23.60;94.80
6407;DHT22;3236;51.022;6.818;2023-07-13T10:41:36;22.90;94.00
6407;DHT22;3236;51.022;6.818;2023-07-13T10:44:18;23.10;94.00
6407;DHT22;3236;51.022;6.818;2023-07-13T10:46:46;23.80;91.90
6407;DHT22;3236;51.022;6.818;2023-07-13T10:49:16;23.40;94.00
6407;DHT22;3236;51.022;6.818;2023-07-13T10:51:45;23.70;95.70
6407;DHT22;3236;51.022;6.818;2023-07-13T10:54:27;22.40;94.60
6407;DHT22;3236;51.022;6.818;2023-07-13T10:57:18;23.20;94.30
6407;DHT22;3236;51.022;6.818;2023-07-13T11:00:14;22.00;96.00
6407;DHT22;3236;51.022;6.818;2023-07-13T11:02:43;22.30;96.50
6407;DHT22;3236;51.022;6.818;2023-07-13T11:05:25;22.60;96.00
6407;DHT22;3236;51.022;6.818;2023-07-13T11:08:13;23.10;93.50
6407;DHT22;3236;51.022;6.818;2023-07-13T11:10:49;23.30;93.60
6407;DHT22;3236;51.022;6.818;2023-07-13T11:16:54;23.50;91.70
6407;DHT22;3236;51.022;6.818;2023-07-13T11:19:42;22.90;93.30
6407;DHT22;3236;51.022;6.818;2023-07-13T11:22:15;23.40;94.00
6407;DHT22;3236;51.022;6.818;2023-07-13T11:24:57;23.00;92.50
6407;DHT22;3236;51.022;6.818;2023-07-13T11:27:40;22.90;92.50
6407;DHT22;3236;51.022;6.818;2023-07-13T11:30:31;22.80;93.20
6407;DHT22;3236;51.022;6.818;2023-07-13T11:33:12;22.30;95.20
6407;DHT22;3236;51.022;6.818;2023-07-13T11:35:52;22.60;96.40
6407;DHT22;3236;51.022;6.818;2023-07-13T11:38:23;22.60;95.40
6407;DHT22;3236;51.022;6.818;2023-07-13T11:40:55;23.20;95.10
6407;DHT22;3236;51.022;6.818;2023-07-13T11:43:23;22.90;93.80
6407;DHT22;3236;51.022;6.818;2023-07-13T11:45:50;24.50;89.60
6407;DHT22;3236;51.022;6.818;2023-07-13T11:48:23;24.70;86.80
6407;DHT22;3236;51.022;6.818;2023-07-13T11:50:56;22.90;87.80
6407;DHT22;3236;51.022;6.818;2023-07-13T11:53:27;23.20;90.10
6407;DHT22;3236;51.022;6.818;2023-07-13T11:55:55;23.30;88.10
6407;DHT22;3236;51.022;6.818;2023-07-13T11:58:53;23.20;90.40
6407;DHT22;3236;51.022;6.818;2023-07-13T12:01:23;23.80;85.40
6407;DHT22;3236;51.022;6.818;2023-07-13T12:03:52;24.20;85.30
6407;DHT22;3236;51.022;6.818;2023-07-13T12:06:26;23.40;85.20
6407;DHT22;3236;51.022;6.818;2023-07-13T12:08:58;23.40;85.80
6407;DHT22;3236;51.022;6.818;2023-07-13T12:11:27;24.70;84.50
6407;DHT22;3236;51.022;6.818;2023-07-13T12:13:54;24.20;82.30
6407;DHT22;3236;51.022;6.818;2023-07-13T12:16:27;23.80;80.70
6407;DHT22;3236;51.022;6.818;2023-07-13T12:18:55;24.20;78.70
6407;DHT22;3236;51.022;6.818;2023-07-13T12:21:29;24.10;82.80
6407;DHT22;3236;51.022;6.818;2023-07-13T12:23:59;24.50;83.80
6407;DHT22;3236;51.022;6.818;2023-07-13T12:26:29;22.90;83.90
6407;DHT22;3236;51.022;6.818;2023-07-13T12:28:58;24.80;83.50
6407;DHT22;3236;51.022;6.818;2023-07-13T12:31:31;24.20;77.30
6407;DHT22;3236;51.022;6.818;2023-07-13T12:34:00;25.20;71.80
6407;DHT22;3236;51.022;6.818;2023-07-13T12:36:31;25.60;71.40
6407;DHT22;3236;51.022;6.818;2023-07-13T12:39:06;24.90;71.90
6407;DHT22;3236;51.022;6.818;2023-07-13T12:41:38;24.20;74.60
6407;DHT22;3236;51.022;6.818;2023-07-13T12:44:11;25.20;72.30
6407;DHT22;3236;51.022;6.818;2023-07-13T12:46:39;25.60;72.50
6407;DHT22;3236;51.022;6.818;2023-07-13T12:49:18;25.70;70.10
6407;DHT22;3236;51.022;6.818;2023-07-13T12:51:50;24.50;72.90
6407;DHT22;3236;51.022;6.818;2023-07-13T12:54:22;25.30;75.10
6407;DHT22;3236;51.022;6.818;2023-07-13T12:56:49;24.50;70.90
6407;DHT22;3236;51.022;6.818;2023-07-13T12:59:22;25.40;65.70
6407;DHT22;3236;51.022;6.818;2023-07-13T13:01:53;26.30;61.90
6407;DHT22;3236;51.022;6.818;2023-07-13T13:04:20;25.90;64.90
6407;DHT22;3236;51.022;6.818;2023-07-13T13:06:48;26.00;60.00
6407;DHT22;3236;51.022;6.818;2023-07-13T13:09:17;26.50;59.90
6407;DHT22;3236;51.022;6.818;2023-07-13T13:11:47;26.70;57.50
6407;DHT22;3236;51.022;6.818;2023-07-13T13:14:14;26.10;57.80
6407;DHT22;3236;51.022;6.818;2023-07-13T13:16:46;26.50;56.30
6407;DHT22;3236;51.022;6.818;2023-07-13T13:19:21;26.00;56.60
6407;DHT22;3236;51.022;6.818;2023-07-13T13:21:49;25.60;58.20
6407;DHT22;3236;51.022;6.818;2023-07-13T13:24:20;26.00;59.80
6407;DHT22;3236;51.022;6.818;2023-07-13T13:26:50;25.70;60.10
6407;DHT22;3236;51.022;6.818;2023-07-13T13:29:19;25.40;57.70
6407;DHT22;3236;51.022;6.818;2023-07-13T13:31:50;25.70;56.50
6407;DHT22;3236;51.022;6.818;2023-07-13T13:34:20;26.60;57.60
6407;DHT22;3236;51.022;6.818;2023-07-13T13:36:49;26.90;56.40
6407;DHT22;3236;51.022;6.818;2023-07-13T13:39:22;26.30;53.50
6407;DHT22;3236;51.022;6.818;2023-07-13T13:41:52;25.70;57.90
6407;DHT22;3236;51.022;6.818;2023-07-13T13:44:20;25.40;60.90
6407;DHT22;3236;51.022;6.818;2023-07-13T13:46:52;25.80;60.10
6407;DHT22;3236;51.022;6.818;2023-07-13T13:49:21;26.10;58.80
6407;DHT22;3236;51.022;6.818;2023-07-13T13:51:49;26.70;58.40
6407;DHT22;3236;51.022;6.818;2023-07-13T13:54:18;27.30;53.80
6407;DHT22;3236;51.022;6.818;2023-07-13T13:56:46;27.10;53.70
6407;DHT22;3236;51.022;6.818;2023-07-13T13:59:16;26.50;52.20
6407;DHT22;3236;51.022;6.818;2023-07-13T14:01:44;27.10;50.40
6407;DHT22;3236;51.022;6.818;2023-07-13T14:04:16;27.20;51.30
6407;DHT22;3236;51.022;6.818;2023-07-13T14:06:44;27.20;45.90
6407;DHT22;3236;51.022;6.818;2023-07-13T14:09:14;26.20;46.30
6407;DHT22;3236;51.022;6.818;2023-07-13T14:11:47;26.50;43.10
6407;DHT22;3236;51.022;6.818;2023-07-13T14:14:17;26.60;47.10
6407;DHT22;3236;51.022;6.818;2023-07-13T14:16:45;27.10;51.00
6407;DHT22;3236;51.022;6.818;2023-07-13T14:19:19;26.90;47.50
6407;DHT22;3236;51.022;6.818;2023-07-13T14:21:46;26.70;47.80
6407;DHT22;3236;51.022;6.818;2023-07-13T14:24:15;26.70;48.00
6407;DHT22;3236;51.022;6.818;2023-07-13T14:26:42;26.70;50.90
6407;DHT22;3236;51.022;6.818;2023-07-13T14:29:13;26.80;53.00
6407;DHT22;3236;51.022;6.818;2023-07-13T14:31:44;25.60;55.40
6407;DHT22;3236;51.022;6.818;2023-07-13T14:34:12;25.30;59.40
6407;DHT22;3236;51.022;6.818;2023-07-13T14:36:41;24.90;59.60
6407;DHT22;3236;51.022;6.818;2023-07-13T14:39:12;25.00;59.80
6407;DHT22;3236;51.022;6.818;2023-07-13T14:41:40;25.40;59.60
6407;DHT22;3236;51.022;6.818;2023-07-13T14:44:14;25.00;56.70
6407;DHT22;3236;51.022;6.818;2023-07-13T14:46:44;25.40;51.80
6407;DHT22;3236;51.022;6.818;2023-07-13T14:49:16;26.10;53.20
6407;DHT22;3236;51.022;6.818;2023-07-13T14:51:48;25.80;51.40
6407;DHT22;3236;51.022;6.818;2023-07-13T14:54:15;26.30;53.30
6407;DHT22;3236;51.022;6.818;2023-07-13T14:56:42;24.80;54.50
6407;DHT22;3236;51.022;6.818;2023-07-13T14:59:13;25.30;55.70
6407;DHT22;3236;51.022;6.818;2023-07-13T15:01:40;25.60;56.20
6407;DHT22;3236;51.022;6.818;2023-07-13T15:04:09;24.60;51.30
6407;DHT22;3236;51.022;6.818;2023-07-13T15:06:54;26.70;49.10
6407;DHT22;3236;51.022;6.818;2023-07-13T15:09:21;26.60;51.90
6407;DHT22;3236;51.022;6.818;2023-07-13T15:11:50;25.20;55.60
6407;DHT22;3236;51.022;6.818;2023-07-13T15:14:19;25.20;58.60
6407;DHT22;3236;51.022;6.818;2023-07-13T15:16:47;24.90;60.90
6407;DHT22;3236;51.022;6.818;2023-07-13T15:19:19;24.20;62.10
6407;DHT22;3236;51.022;6.818;2023-07-13T15:21:47;24.20;63.60
6407;DHT22;3236;51.022;6.818;2023-07-13T15:24:14;23.30;63.90
6407;DHT22;3236;51.022;6.818;2023-07-13T15:26:42;23.30;65.50
6407;DHT22;3236;51.022;6.818;2023-07-13T15:29:11;23.10;65.90
6407;DHT22;3236;51.022;6.818;2023-07-13T15:31:38;23.50;67.80
6407;DHT22;3236;51.022;6.818;2023-07-13T15:34:11;23.50;68.90
6407;DHT22;3236;51.022;6.818;2023-07-13T15:36:40;23.90;70.30
6407;DHT22;3236;51.022;6.818;2023-07-13T15:39:14;23.90;76.30
6407;DHT22;3236;51.022;6.818;2023-07-13T15:41:46;23.40;84.20
6407;DHT22;3236;51.022;6.818;2023-07-13T15:44:26;22.90;87.40
6407;DHT22;3236;51.022;6.818;2023-07-13T15:46:55;22.70;90.00
6407;DHT22;3236;51.022;6.818;2023-07-13T15:49:23;21.90;92.50
6407;DHT22;3236;51.022;6.818;2023-07-13T15:51:51;22.20;93.20
6407;DHT22;3236;51.022;6.818;2023-07-13T15:54:19;22.00;95.10
6407;DHT22;3236;51.022;6.818;2023-07-13T15:56:51;22.20;95.30
6407;DHT22;3236;51.022;6.818;2023-07-13T15:59:18;22.30;96.20
6407;DHT22;3236;51.022;6.818;2023-07-13T16:01:45;22.20;96.50
6407;DHT22;3236;51.022;6.818;2023-07-13T16:04:15;21.30;96.10
6407;DHT22;3236;51.022;6.818;2023-07-13T16:06:43;21.70;95.20
6407;DHT22;3236;51.022;6.818;2023-07-13T16:09:18;21.70;95.10
6407;DHT22;3236;51.022;6.818;2023-07-13T16:11:47;21.70;95.20
6407;DHT22;3236;51.022;6.818;2023-07-13T16:14:15;22.30;95.10
6407;DHT22;3236;51.022;6.818;2023-07-13T16:16:44;21.80;94.80
6407;DHT22;3236;51.022;6.818;2023-07-13T16:19:16;22.00;95.60
6407;DHT22;3236;51.022;6.818;2023-07-13T16:21:45;21.50;94.90
6407;DHT22;3236;51.022;6.818;2023-07-13T16:24:17;21.70;94.80
6407;DHT22;3236;51.022;6.818;2023-07-13T16:26:46;21.40;95.00
6407;DHT22;3236;51.022;6.818;2023-07-13T16:29:16;22.10;94.60
6407;DHT22;3236;51.022;6.818;2023-07-13T16:31:55;21.80;94.40
6407;DHT22;3236;51.022;6.818;2023-07-13T16:34:22;21.30;94.50
6407;DHT22;3236;51.022;6.818;2023-07-13T16:39:21;20.30;93.90
6407;DHT22;3236;51.022;6.818;2023-07-13T16:41:53;21.70;94.10
6407;DHT22;3236;51.022;6.818;2023-07-13T16:44:24;21.60;94.60
6407;DHT22;3236;51.022;6.818;2023-07-13T16:46:57;21.30;94.70
6407;DHT22;3236;51.022;6.818;2023-07-13T16:49:28;21.40;95.30
6407;DHT22;3236;51.022;6.818;2023-07-13T16:51:56;21.80;94.80
6407;DHT22;3236;51.022;6.818;2023-07-13T16:54:30;21.30;95.00
6407;DHT22;3236;51.022;6.818;2023-07-13T16:56:59;21.40;94.50
6407;DHT22;3236;51.022;6.818;2023-07-13T16:59:30;21.60;94.30
6407;DHT22;3236;51.022;6.818;2023-07-13T17:01:59;21.40;94.60
6407;DHT22;3236;51.022;6.818;2023-07-13T17:04:27;21.20;94.60
6407;DHT22;3236;51.022;6.818;2023-07-13T17:06:57;21.70;94.60
6407;DHT22;3236;51.022;6.818;2023-07-13T17:12:00;21.80;94.60
6407;DHT22;3236;51.022;6.818;2023-07-13T17:14:27;21.50;93.60
6407;DHT22;3236;51.022;6.818;2023-07-13T17:17:00;22.60;92.90
6407;DHT22;3236;51.022;6.818;2023-07-13T17:19:30;22.50;92.10
6407;DHT22;3236;51.022;6.818;2023-07-13T17:22:06;22.80;91.80
6407;DHT22;3236;51.022;6.818;2023-07-13T17:24:35;22.80;90.10
6407;DHT22;3236;51.022;6.818;2023-07-13T17:27:04;22.60;90.00
6407;DHT22;3236;51.022;6.818;2023-07-13T17:31:59;23.50;86.90
6407;DHT22;3236;51.022;6.818;2023-07-13T17:36:54;23.60;83.20
6407;DHT22;3236;51.022;6.818;2023-07-13T17:39:21;23.30;81.60
6407;DHT22;3236;51.022;6.818;2023-07-13T17:41:49;22.80;81.60